createdAt,value
2019-04-07T00:01:22.983Z,100702.08
2019-04-07T00:03:53.276Z,100691.30
2019-04-07T00:06:23.695Z,100689.29
2019-04-07T00:08:54.520Z,100689.84
2019-04-07T00:11:24.530Z,100684.74
2019-04-07T00:13:54.317Z,100680.50
2019-04-07T00:16:24.421Z,100690.56
2019-04-07T00:18:54.549Z,100694.92
2019-04-07T00:21:24.475Z,100681.98
2019-04-07T00:23:54.447Z,100686.48
2019-04-07T00:26:24.906Z,100686.86
2019-04-07T00:28:54.842Z,100689.67
2019-04-07T00:31:24.657Z,100692.06
2019-04-07T00:33:54.567Z,100689.97
2019-04-07T00:36:24.415Z,100686.75
2019-04-07T00:38:55.028Z,100687.67
2019-04-07T00:41:26.401Z,100688.17
2019-04-07T00:43:56.224Z,100692.60
2019-04-07T00:46:25.990Z,100686.03
2019-04-07T00:48:56.253Z,100690.45
2019-04-07T00:51:26.706Z,100684.63
2019-04-07T00:53:58.019Z,100685.58
2019-04-07T00:56:28.624Z,100679.00
2019-04-07T00:58:58.853Z,100673.41
2019-04-07T01:01:28.799Z,100669.71
2019-04-07T01:03:58.696Z,100657.15
2019-04-07T01:06:29.433Z,100664.66
2019-04-07T01:08:59.210Z,100657.73
2019-04-07T01:11:29.349Z,100665.05
2019-04-07T01:13:59.200Z,100663.89
2019-04-07T01:16:29.404Z,100658.47
2019-04-07T01:18:59.774Z,100657.98
2019-04-07T01:21:29.561Z,100652.17
2019-04-07T01:23:59.275Z,100649.91
2019-04-07T01:26:29.303Z,100648.16
2019-04-07T01:28:59.292Z,100641.46
2019-04-07T01:31:29.782Z,100642.49
2019-04-07T01:33:59.708Z,100636.27
2019-04-07T01:36:29.358Z,100633.25
2019-04-07T01:38:59.960Z,100629.51
2019-04-07T01:41:35.603Z,100632.78
2019-04-07T01:44:24.460Z,100643.44
2019-04-07T01:47:28.923Z,100646.48
2019-04-07T01:50:09.520Z,100639.66
2019-04-07T01:53:01.065Z,100634.15
2019-04-07T01:55:53.693Z,100633.57
2019-04-07T01:58:41.674Z,100631.19
2019-04-07T02:01:42.747Z,100631.48
2019-04-07T02:04:37.814Z,100636.02
2019-04-07T02:07:29.508Z,100630.64
2019-04-07T02:10:20.981Z,100647.98
2019-04-07T02:13:10.994Z,100645.23
2019-04-07T02:16:02.960Z,100644.86
2019-04-07T02:18:51.839Z,100643.99
2019-04-07T02:21:27.395Z,100644.90
2019-04-07T02:24:16.642Z,100640.55
2019-04-07T02:27:04.054Z,100643.39
2019-04-07T02:29:56.161Z,100641.72
2019-04-07T02:32:44.076Z,100634.66
2019-04-07T02:35:29.994Z,100635.19
2019-04-07T02:38:25.072Z,100636.37
2019-04-07T02:41:12.515Z,100639.13
2019-04-07T02:43:59.808Z,100643.43
2019-04-07T02:46:48.056Z,100633.75
2019-04-07T02:49:24.182Z,100635.83
2019-04-07T02:52:31.880Z,100631.53
2019-04-07T02:55:28.071Z,100634.08
2019-04-07T02:58:17.932Z,100624.73
2019-04-07T03:01:06.945Z,100624.14
2019-04-07T03:03:46.541Z,100629.02
2019-04-07T03:06:47.314Z,100625.88
2019-04-07T03:09:34.916Z,100626.92
2019-04-07T03:12:39.374Z,100630.52
2019-04-07T03:15:16.123Z,100627.12
2019-04-07T03:18:02.401Z,100626.55
2019-04-07T03:20:39.503Z,100620.22
2019-04-07T03:23:20.421Z,100620.53
2019-04-07T03:26:15.201Z,100617.85
2019-04-07T03:29:08.559Z,100620.84
2019-04-07T03:31:51.334Z,100610.75
2019-04-07T03:34:33.056Z,100606.33
2019-04-07T03:37:33.338Z,100610.72
2019-04-07T03:40:08.311Z,100618.71
2019-04-07T03:43:02.835Z,100623.58
2019-04-07T03:45:51.986Z,100622.91
2019-04-07T03:48:30.463Z,100623.64
2019-04-07T03:51:22.482Z,100625.47
2019-04-07T03:54:03.113Z,100627.84
2019-04-07T03:56:45.486Z,100630.20
2019-04-07T03:59:36.396Z,100638.47
2019-04-07T04:02:37.948Z,100638.23
2019-04-07T04:05:26.008Z,100636.72
2019-04-07T04:08:24.516Z,100636.79
2019-04-07T04:11:11.781Z,100641.50
2019-04-07T04:14:03.319Z,100642.84
2019-04-07T04:16:38.385Z,100643.06
2019-04-07T04:19:08.397Z,100642.98
2019-04-07T04:21:38.233Z,100644.90
2019-04-07T04:24:08.349Z,100645.08
2019-04-07T04:26:38.155Z,100645.56
2019-04-07T04:29:08.311Z,100648.78
2019-04-07T04:31:38.903Z,100648.82
2019-04-07T04:34:09.586Z,100648.89
2019-04-07T04:36:40.462Z,100652.77
2019-04-07T04:39:10.550Z,100647.14
2019-04-07T04:41:40.686Z,100649.80
2019-04-07T04:44:10.534Z,100649.31
2019-04-07T04:46:41.128Z,100648.37
2019-04-07T04:49:11.860Z,100651.69
2019-04-07T04:51:42.542Z,100654.28
2019-04-07T04:54:12.616Z,100649.88
2019-04-07T04:56:43.402Z,100654.02
2019-04-07T04:59:13.291Z,100645.91
2019-04-07T05:01:43.327Z,100641.91
2019-04-07T05:04:13.466Z,100645.52
2019-04-07T05:06:43.540Z,100650.56
2019-04-07T05:09:14.585Z,100642.38
2019-04-07T05:11:44.480Z,100645.16
2019-04-07T05:14:14.266Z,100639.00
2019-04-07T05:16:44.758Z,100637.42
2019-04-07T05:19:14.705Z,100633.30
2019-04-07T05:21:44.800Z,100638.08
2019-04-07T05:24:14.952Z,100639.23
2019-04-07T05:26:45.547Z,100640.30
2019-04-07T05:29:15.887Z,100639.88
2019-04-07T05:31:47.076Z,100644.73
2019-04-07T05:34:20.513Z,100636.52
2019-04-07T05:36:48.399Z,100640.98
2019-04-07T05:39:18.500Z,100641.66
2019-04-07T05:41:48.239Z,100645.17
2019-04-07T05:44:18.083Z,100642.83
2019-04-07T05:46:49.776Z,100639.84
2019-04-07T05:49:22.148Z,100643.02
2019-04-07T05:51:51.099Z,100634.28
2019-04-07T05:54:22.406Z,100637.40
2019-04-07T05:56:52.600Z,100631.73
2019-04-07T05:59:22.390Z,100636.76
2019-04-07T06:01:58.448Z,100629.75
2019-04-07T06:04:23.850Z,100629.74
2019-04-07T06:06:56.209Z,100632.69
2019-04-07T06:09:26.324Z,100633.63
2019-04-07T06:11:56.166Z,100633.36
2019-04-07T06:14:26.034Z,100632.66
2019-04-07T06:16:56.046Z,100640.06
2019-04-07T06:19:26.111Z,100644.09
2019-04-07T06:21:55.915Z,100648.05
2019-04-07T06:24:31.476Z,100641.20
2019-04-07T06:26:58.772Z,100645.95
2019-04-07T06:29:28.953Z,100649.67
2019-04-07T06:32:02.423Z,100639.81
2019-04-07T06:34:30.206Z,100640.50
2019-04-07T06:37:00.020Z,100639.97
2019-04-07T06:39:31.970Z,100642.53
2019-04-07T06:42:02.486Z,100639.47
2019-04-07T06:44:32.545Z,100641.97
2019-04-07T06:47:17.779Z,100641.30
2019-04-07T06:50:09.945Z,100641.11
2019-04-07T06:52:55.383Z,100642.77
2019-04-07T06:55:42.787Z,100643.59
2019-04-07T06:58:26.650Z,100639.67
2019-04-07T07:01:13.254Z,100640.11
2019-04-07T07:04:00.273Z,100645.30
2019-04-07T07:06:56.841Z,100648.91
2019-04-07T07:09:40.483Z,100647.80
2019-04-07T07:12:38.380Z,100649.87
2019-04-07T07:15:20.788Z,100646.86
2019-04-07T07:18:12.163Z,100646.01
2019-04-07T07:21:02.562Z,100646.16
2019-04-07T07:23:34.203Z,100645.39
2019-04-07T07:26:04.272Z,100646.66
2019-04-07T07:28:34.759Z,100645.82
2019-04-07T07:31:05.319Z,100649.86
2019-04-07T07:33:38.969Z,100646.20
2019-04-07T07:36:06.910Z,100651.52
2019-04-07T07:38:36.693Z,100647.30
2019-04-07T07:41:06.557Z,100650.02
2019-04-07T07:43:36.985Z,100650.32
2019-04-07T07:46:06.858Z,100649.31
2019-04-07T07:48:36.869Z,100643.25
2019-04-07T07:51:08.114Z,100642.05
2019-04-07T07:53:39.471Z,100647.60
2019-04-07T07:56:12.949Z,100649.93
2019-04-07T07:58:41.734Z,100649.88
2019-04-07T08:01:14.856Z,100640.28
2019-04-07T08:03:44.301Z,100641.50
2019-04-07T08:06:14.881Z,100647.16
2019-04-07T08:08:46.273Z,100648.20
2019-04-07T08:11:17.566Z,100642.66
2019-04-07T08:13:47.482Z,100644.59
2019-04-07T08:16:19.258Z,100639.02
2019-04-07T08:18:49.910Z,100642.11
2019-04-07T08:21:20.435Z,100642.74
2019-04-07T08:23:50.474Z,100632.37
2019-04-07T08:26:23.904Z,100637.11
2019-04-07T08:28:53.222Z,100633.77
2019-04-07T08:31:23.072Z,100630.27
2019-04-07T08:33:53.763Z,100625.80
2019-04-07T08:36:23.850Z,100626.45
2019-04-07T08:38:55.725Z,100625.44
2019-04-07T08:41:25.584Z,100621.52
2019-04-07T08:43:57.712Z,100622.57
2019-04-07T08:46:35.600Z,100627.78
2019-04-07T08:49:03.675Z,100623.88
2019-04-07T08:51:33.699Z,100618.72
2019-04-07T08:54:05.803Z,100610.71
2019-04-07T08:56:36.570Z,100612.77
2019-04-07T08:59:09.452Z,100604.95
2019-04-07T09:01:38.828Z,100609.36
2019-04-07T09:04:09.364Z,100614.18
2019-04-07T09:06:39.626Z,100616.42
2019-04-07T09:09:10.022Z,100609.09
2019-04-07T09:11:41.334Z,100603.73
2019-04-07T09:14:11.506Z,100604.20
2019-04-07T09:17:29.266Z,100603.70
2019-04-07T09:20:10.747Z,100603.86
2019-04-07T09:23:06.988Z,100613.64
2019-04-07T09:25:55.109Z,100612.33
2019-04-07T09:28:39.239Z,100604.34
2019-04-07T09:31:26.666Z,100598.67
2019-04-07T09:34:18.905Z,100602.45
2019-04-07T09:37:07.814Z,100597.02
2019-04-07T09:40:00.751Z,100598.45
2019-04-07T09:42:50.778Z,100589.00
2019-04-07T09:45:58.341Z,100592.39
2019-04-07T09:48:50.983Z,100578.72
2019-04-07T09:51:50.028Z,100578.79
2019-04-07T09:54:41.799Z,100571.77
2019-04-07T09:57:23.596Z,100572.08
2019-04-07T10:00:14.644Z,100575.84
2019-04-07T10:02:58.505Z,100580.77
2019-04-07T10:05:45.154Z,100582.80
2019-04-07T10:08:33.990Z,100573.73
2019-04-07T10:11:19.701Z,100566.16
2019-04-07T10:14:00.028Z,100563.00
2019-04-07T10:16:49.473Z,100561.53
2019-04-07T10:19:32.712Z,100564.80
2019-04-07T10:22:30.587Z,100560.56
2019-04-07T10:25:25.233Z,100557.86
2019-04-07T10:28:13.781Z,100557.86
2019-04-07T10:31:13.751Z,100551.80
2019-04-07T10:34:07.237Z,100545.87
2019-04-07T10:37:05.176Z,100553.14
2019-04-07T10:39:56.776Z,100552.00
2019-04-07T10:42:54.766Z,100546.47
2019-04-07T10:45:39.322Z,100545.52
2019-04-07T10:48:34.393Z,100542.23
2019-04-07T10:51:32.471Z,100539.69
2019-04-07T10:54:21.327Z,100543.76
2019-04-07T10:57:14.111Z,100537.20
2019-04-07T11:00:03.400Z,100529.82
2019-04-07T11:02:59.890Z,100525.13
2019-04-07T11:05:57.167Z,100523.20
2019-04-07T11:09:04.731Z,100521.86
2019-04-07T11:11:54.128Z,100521.78
2019-04-07T11:14:41.630Z,100520.20
2019-04-07T11:17:25.290Z,100518.14
2019-04-07T11:20:20.498Z,100511.20
2019-04-07T11:23:13.089Z,100509.77
2019-04-07T11:26:05.442Z,100505.50
2019-04-07T11:28:49.155Z,100504.59
2019-04-07T11:31:33.030Z,100500.92
2019-04-07T11:34:25.591Z,100496.14
2019-04-07T11:37:26.494Z,100492.08
2019-04-07T11:40:28.118Z,100490.03
2019-04-07T11:43:20.766Z,100483.30
2019-04-07T11:46:11.950Z,100476.58
2019-04-07T11:48:52.933Z,100481.47
2019-04-07T11:51:30.375Z,100481.27
2019-04-07T11:54:16.461Z,100475.56
2019-04-07T11:57:00.811Z,100473.64
2019-04-07T11:59:58.611Z,100472.28
2019-04-07T12:03:06.005Z,100474.37
2019-04-07T12:05:50.592Z,100471.20
2019-04-07T12:08:36.250Z,100464.08
2019-04-07T12:11:34.369Z,100465.55
2019-04-07T12:14:14.993Z,100462.95
2019-04-07T12:17:17.723Z,100455.45
2019-04-07T12:20:08.124Z,100458.58
2019-04-07T12:22:53.828Z,100446.72
2019-04-07T12:25:42.907Z,100453.01
2019-04-07T12:28:35.351Z,100446.98
2019-04-07T12:31:29.376Z,100452.20
2019-04-07T12:34:17.946Z,100447.56
2019-04-07T12:37:03.076Z,100445.65
2019-04-07T12:39:53.440Z,100441.16
2019-04-07T12:42:42.942Z,100439.98
2019-04-07T12:45:36.109Z,100437.19
2019-04-07T12:48:43.594Z,100432.72
2019-04-07T12:51:32.860Z,100429.64
2019-04-07T12:54:22.163Z,100429.37
2019-04-07T12:57:14.629Z,100423.55
2019-04-07T13:00:04.834Z,100420.89
2019-04-07T13:02:59.743Z,100419.39
2019-04-07T13:05:48.790Z,100422.91
2019-04-07T13:08:25.772Z,100421.48
2019-04-07T13:11:30.095Z,100417.19
2019-04-07T13:14:14.020Z,100420.58
2019-04-07T13:17:05.585Z,100419.89
2019-04-07T13:19:44.030Z,100423.62
2019-04-07T13:22:33.493Z,100417.81
2019-04-07T13:25:23.175Z,100414.75
2019-04-07T13:28:08.290Z,100415.89
2019-04-07T13:30:45.590Z,100406.28
2019-04-07T13:33:50.159Z,100408.12
2019-04-07T13:36:37.746Z,100412.82
2019-04-07T13:39:26.305Z,100414.39
2019-04-07T13:42:04.348Z,100409.66
2019-04-07T13:44:53.741Z,100412.94
2019-04-07T13:47:48.727Z,100404.54
2019-04-07T13:50:38.255Z,100404.97
2019-04-07T13:53:27.936Z,100403.18
2019-04-07T13:56:22.795Z,100400.56
2019-04-07T13:59:20.560Z,100406.41
2019-04-07T14:02:15.962Z,100400.94
2019-04-07T14:04:56.287Z,100399.83
2019-04-07T14:07:49.169Z,100397.69
2019-04-07T14:10:27.473Z,100396.77
2019-04-07T14:13:20.014Z,100391.52
2019-04-07T14:16:21.235Z,100396.95
2019-04-07T14:19:06.701Z,100399.17
2019-04-07T14:22:03.370Z,100400.34
2019-04-07T14:24:44.093Z,100402.00
2019-04-07T14:27:42.659Z,100401.77
2019-04-07T14:30:41.473Z,100393.44
2019-04-07T14:33:28.257Z,100402.33
2019-04-07T14:36:17.236Z,100403.13
2019-04-07T14:39:04.143Z,100405.09
2019-04-07T14:42:07.941Z,100403.88
2019-04-07T14:44:43.012Z,100412.92
2019-04-07T14:47:38.191Z,100410.88
2019-04-07T14:50:30.887Z,100411.23
2019-04-07T14:53:22.493Z,100420.09
2019-04-07T14:56:15.367Z,100417.52
2019-04-07T14:58:56.276Z,100421.74
2019-04-07T15:01:45.808Z,100418.94
2019-04-07T15:04:17.054Z,100424.64
2019-04-07T15:06:49.156Z,100418.28
2019-04-07T15:09:31.662Z,100424.09
2019-04-07T15:12:30.275Z,100423.97
2019-04-07T15:15:04.687Z,100422.04
2019-04-07T15:17:35.804Z,100417.74
2019-04-07T15:20:07.453Z,100419.31
2019-04-07T15:22:37.866Z,100422.08
2019-04-07T15:25:08.998Z,100425.95
2019-04-07T15:27:40.126Z,100421.34
2019-04-07T15:30:15.384Z,100424.12
2019-04-07T15:32:42.737Z,100425.05
2019-04-07T15:35:14.326Z,100423.07
2019-04-07T15:37:44.659Z,100427.98
2019-04-07T15:40:14.557Z,100419.98
2019-04-07T15:42:49.992Z,100423.97
2019-04-07T15:45:16.242Z,100427.47
2019-04-07T15:47:47.189Z,100425.58
2019-04-07T15:50:18.089Z,100426.52
2019-04-07T15:52:48.675Z,100428.34
2019-04-07T15:55:19.072Z,100432.66
2019-04-07T15:57:54.281Z,100432.77
2019-04-07T16:00:22.641Z,100429.91
2019-04-07T16:02:53.552Z,100433.10
2019-04-07T16:05:25.264Z,100433.35
2019-04-07T16:07:56.170Z,100440.14
2019-04-07T16:10:26.239Z,100436.59
2019-04-07T16:12:59.426Z,100440.50
2019-04-07T16:15:32.259Z,100442.52
2019-04-07T16:18:05.462Z,100446.09
2019-04-07T16:20:38.036Z,100437.09
2019-04-07T16:23:05.482Z,100440.74
2019-04-07T16:25:39.220Z,100444.30
2019-04-07T16:28:12.795Z,100444.06
2019-04-07T16:30:40.680Z,100452.11
2019-04-07T16:33:10.596Z,100446.05
2019-04-07T16:35:41.042Z,100451.86
2019-04-07T16:38:11.569Z,100451.36
2019-04-07T16:40:42.436Z,100444.42
2019-04-07T16:43:16.120Z,100445.67
2019-04-07T16:45:45.942Z,100449.50
2019-04-07T16:48:16.366Z,100450.11
2019-04-07T16:50:51.097Z,100449.92
2019-04-07T16:53:18.407Z,100452.38
2019-04-07T16:55:52.745Z,100451.14
2019-04-07T16:58:21.200Z,100452.75
2019-04-07T17:00:51.980Z,100451.69
2019-04-07T17:03:21.952Z,100444.72
2019-04-07T17:05:55.694Z,100458.70
2019-04-07T17:08:24.976Z,100460.93
2019-04-07T17:10:55.929Z,100460.61
2019-04-07T17:13:33.905Z,100459.27
2019-04-07T17:15:57.836Z,100463.85
2019-04-07T17:18:42.926Z,100462.61
2019-04-07T17:21:15.746Z,100468.27
2019-04-07T17:23:46.358Z,100476.25
2019-04-07T17:26:16.568Z,100467.52
2019-04-07T17:28:48.221Z,100468.77
2019-04-07T17:31:18.764Z,100474.89
2019-04-07T17:33:48.887Z,100477.02
2019-04-07T17:36:22.264Z,100483.77
2019-04-07T17:39:14.342Z,100486.05
2019-04-07T17:41:48.316Z,100480.38
2019-04-07T17:44:26.653Z,100491.39
2019-04-07T17:47:18.100Z,100494.38
2019-04-07T17:50:05.631Z,100487.17
2019-04-07T17:53:06.678Z,100488.54
2019-04-07T17:55:57.615Z,100500.16
2019-04-07T17:58:58.684Z,100504.89
2019-04-07T18:01:58.041Z,100512.64
2019-04-07T18:04:37.896Z,100512.72
2019-04-07T18:07:25.601Z,100505.67
2019-04-07T18:10:06.904Z,100501.31
2019-04-07T18:12:52.944Z,100498.22
2019-04-07T18:15:41.971Z,100505.37
2019-04-07T18:18:31.474Z,100503.52
2019-04-07T18:21:23.379Z,100504.38
2019-04-07T18:24:13.743Z,100503.59
2019-04-07T18:27:01.662Z,100500.48
2019-04-07T18:29:50.789Z,100503.42
2019-04-07T18:32:46.363Z,100497.84
2019-04-07T18:35:34.766Z,100497.56
2019-04-07T18:38:36.345Z,100495.13
2019-04-07T18:41:35.841Z,100503.91
2019-04-07T18:44:27.248Z,100492.97
2019-04-07T18:47:28.191Z,100497.25
2019-04-07T18:50:16.944Z,100491.73
2019-04-07T18:53:04.390Z,100490.60
2019-04-07T18:55:42.144Z,100490.67
2019-04-07T18:58:31.960Z,100497.79
2019-04-07T19:01:20.926Z,100505.91
2019-04-07T19:04:02.820Z,100496.26
2019-04-07T19:06:57.947Z,100502.91
2019-04-07T19:10:10.522Z,100502.86
2019-04-07T19:12:53.751Z,100503.94
2019-04-07T19:15:36.707Z,100499.64
2019-04-07T19:18:23.110Z,100498.05
2019-04-07T19:21:18.329Z,100486.73
2019-04-07T19:24:18.387Z,100494.01
2019-04-07T19:27:21.924Z,100486.34
2019-04-07T19:30:15.301Z,100486.11
2019-04-07T19:33:11.035Z,100486.58
2019-04-07T19:36:04.862Z,100485.38
2019-04-07T19:38:52.259Z,100485.86
2019-04-07T19:41:42.240Z,100483.29
2019-04-07T19:44:42.485Z,100485.17
2019-04-07T19:47:34.884Z,100483.97
2019-04-07T19:50:22.712Z,100486.31
2019-04-07T19:53:11.247Z,100487.48
2019-04-07T19:55:58.148Z,100479.38
2019-04-07T19:58:51.298Z,100486.16
2019-04-07T20:01:48.750Z,100484.48
2019-04-07T20:04:53.681Z,100483.09
2019-04-07T20:07:41.997Z,100481.77
2019-04-07T20:10:25.381Z,100475.83
2019-04-07T20:13:28.256Z,100464.82
2019-04-07T20:16:16.397Z,100469.17
2019-04-07T20:18:59.498Z,100476.13
2019-04-07T20:21:49.325Z,100471.77
2019-04-07T20:24:47.554Z,100475.67
2019-04-07T20:27:30.094Z,100486.84
2019-04-07T20:30:19.097Z,100485.25
2019-04-07T20:33:23.236Z,100482.48
2019-04-07T20:36:22.147Z,100472.77
2019-04-07T20:39:12.247Z,100480.69
2019-04-07T20:41:59.675Z,100480.02
2019-04-07T20:44:59.185Z,100482.00
2019-04-07T20:47:36.129Z,100481.45
2019-04-07T20:50:32.042Z,100478.64
2019-04-07T20:53:26.393Z,100471.82
2019-04-07T20:56:22.882Z,100470.45
2019-04-07T20:59:10.421Z,100475.79
2019-04-07T21:02:04.194Z,100475.16
2019-04-07T21:04:52.113Z,100467.53
2019-04-07T21:07:41.556Z,100468.55
2019-04-07T21:10:42.616Z,100457.80
2019-04-07T21:13:34.311Z,100457.00
2019-04-07T21:16:25.995Z,100463.16
2019-04-07T21:19:12.861Z,100451.64
2019-04-07T21:21:54.550Z,100452.44
2019-04-07T21:24:51.359Z,100453.41
2019-04-07T21:27:39.139Z,100455.41
2019-04-07T21:30:29.068Z,100451.56
2019-04-07T21:33:13.683Z,100450.02
2019-04-07T21:36:06.401Z,100430.94
2019-04-07T21:39:12.762Z,100433.70
2019-04-07T21:41:59.160Z,100433.06
2019-04-07T21:44:42.694Z,100427.25
2019-04-07T21:47:26.987Z,100423.57
2019-04-07T21:50:24.494Z,100430.17
2019-04-07T21:53:04.531Z,100433.16
2019-04-07T21:55:53.331Z,100429.27
2019-04-07T21:58:52.041Z,100429.77
2019-04-07T22:01:37.726Z,100432.16
2019-04-07T22:04:12.600Z,100430.84
2019-04-07T22:06:48.798Z,100432.31
2019-04-07T22:09:28.961Z,100433.56
2019-04-07T22:12:00.000Z,100435.41
2019-04-07T22:14:30.472Z,100419.92
2019-04-07T22:17:02.586Z,100419.41
2019-04-07T22:19:32.411Z,100420.17
2019-04-07T22:22:02.472Z,100422.47
2019-04-07T22:24:35.554Z,100425.69
2019-04-07T22:27:05.504Z,100424.52
2019-04-07T22:29:35.921Z,100426.39
2019-04-07T22:32:05.996Z,100413.27
2019-04-07T22:34:36.020Z,100423.63
2019-04-07T22:37:06.785Z,100419.89
2019-04-07T22:39:37.495Z,100420.59
2019-04-07T22:42:07.350Z,100428.16
2019-04-07T22:44:37.712Z,100425.34
2019-04-07T22:47:07.759Z,100412.88
2019-04-07T22:49:37.680Z,100405.30
2019-04-07T22:52:07.635Z,100409.14
2019-04-07T22:54:37.607Z,100404.51
2019-04-07T22:57:11.852Z,100402.00
2019-04-07T22:59:39.833Z,100404.59
2019-04-07T23:02:10.635Z,100400.48
2019-04-07T23:04:40.746Z,100403.47
2019-04-07T23:07:10.833Z,100400.27
2019-04-07T23:09:41.411Z,100398.66
2019-04-07T23:12:11.186Z,100387.07
2019-04-07T23:14:40.937Z,100382.93
2019-04-07T23:17:10.643Z,100376.98
2019-04-07T23:19:40.345Z,100374.57
2019-04-07T23:22:10.452Z,100377.51
2019-04-07T23:24:41.125Z,100377.33
2019-04-07T23:27:12.378Z,100383.60
2019-04-07T23:29:42.333Z,100377.51
2019-04-07T23:32:12.121Z,100379.17
2019-04-07T23:34:42.016Z,100371.17
2019-04-07T23:37:12.357Z,100370.78
2019-04-07T23:39:42.275Z,100368.90
2019-04-07T23:42:12.607Z,100362.87
2019-04-07T23:44:42.643Z,100355.81
2019-04-07T23:47:13.204Z,100360.55
2019-04-07T23:49:43.047Z,100355.81
2019-04-07T23:52:12.753Z,100355.25
2019-04-07T23:54:42.621Z,100353.65
2019-04-07T23:57:12.336Z,100352.20
2019-04-07T23:59:42.223Z,100353.52
